Time;durP1;ratioP1;P1;durP2;ratioP2;P2;SDS_P1;SDS_P2;PMS_P1;PMS_P2;Temp;Humidity;BMP_temperature;BMP_pressure;BME280_temperature;BME280_humidity;BME280_pressure;Samples;Min_cycle;Max_cycle;Signal;HPM_P1;HPM_P2
2023/06/02 00:01:31;;;;;;;5.55;3.42;;;;;;;21.38;44.15;99811.66;4938031;28;20046;-86
2023/06/02 00:04:01;;;;;;;6.15;4.00;;;;;;;21.31;44.19;99810.81;4932652;28;20057;-86
2023/06/02 00:06:37;;;;;;;4.95;3.95;;;;;;;21.33;44.46;99819.56;4955604;28;20078;-88
2023/06/02 00:09:04;;;;;;;5.35;4.28;;;;;;;21.22;44.84;99812.91;4958105;28;20053;-88
2023/06/02 00:11:36;;;;;;;3.78;3.10;;;;;;;21.23;44.78;99818.09;4972087;28;20054;-87
2023/06/02 00:14:05;;;;;;;6.78;4.07;;;;;;;21.16;45.01;99827.22;4974352;28;20072;-86
2023/06/02 00:16:50;;;;;;;6.20;3.90;;;;;;;20.92;45.39;99821.34;4940330;28;20498;-87
2023/06/02 00:19:18;;;;;;;4.53;3.33;;;;;;;21.08;45.26;99822.00;4950107;28;21533;-87
2023/06/02 00:21:47;;;;;;;6.00;4.15;;;;;;;21.03;45.26;99828.00;4947175;28;20141;-87
2023/06/02 00:24:14;;;;;;;6.07;4.10;;;;;;;21.02;45.26;99831.75;4927653;28;20046;-86
2023/06/02 00:26:41;;;;;;;8.15;3.80;;;;;;;20.97;45.50;99829.66;4935278;28;20053;-86
2023/06/02 00:29:08;;;;;;;5.88;3.80;;;;;;;20.94;45.61;99834.63;4923967;28;20146;-86
2023/06/02 00:31:35;;;;;;;6.13;3.80;;;;;;;20.92;45.33;99829.44;4920503;28;20374;-86
2023/06/02 00:34:02;;;;;;;5.18;3.72;;;;;;;20.90;45.59;99828.00;4941362;28;20049;-85
2023/06/02 00:36:29;;;;;;;5.22;3.78;;;;;;;20.82;45.50;99826.31;4929519;28;20515;-86
2023/06/02 00:38:56;;;;;;;5.53;4.20;;;;;;;20.80;45.65;99831.06;4931807;28;20055;-86
2023/06/02 00:41:23;;;;;;;6.53;3.97;;;;;;;20.77;45.75;99826.91;4940001;28;20081;-86
2023/06/02 00:43:49;;;;;;;7.68;4.28;;;;;;;20.70;45.98;99836.84;4923048;28;20047;-86
2023/06/02 00:46:16;;;;;;;7.38;3.92;;;;;;;20.65;45.90;99833.09;4932435;28;20055;-87
2023/06/02 00:48:44;;;;;;;4.40;3.78;;;;;;;20.59;46.24;99832.84;4933166;28;20054;-87
2023/06/02 00:51:11;;;;;;;5.70;3.42;;;;;;;20.60;46.07;99839.91;4938429;28;20047;-86
2023/06/02 00:53:38;;;;;;;7.55;4.05;;;;;;;20.60;46.07;99836.38;4921310;28;20077;-87
2023/06/02 00:56:05;;;;;;;4.88;3.72;;;;;;;20.59;46.10;99829.34;4909947;28;20055;-87
2023/06/02 00:58:37;;;;;;;4.95;4.35;;;;;;;20.61;45.93;99835.38;4922102;28;20039;-87
2023/06/02 01:01:12;;;;;;;8.52;4.35;;;;;;;20.55;45.87;99830.75;4948656;28;20051;-87
2023/06/02 01:03:43;;;;;;;6.40;4.30;;;;;;;20.58;46.20;99839.28;4921936;28;20451;-87
2023/06/02 01:06:11;;;;;;;5.75;4.40;;;;;;;20.57;46.09;99837.63;4947034;28;20671;-87
2023/06/02 01:08:39;;;;;;;5.38;4.30;;;;;;;20.57;46.15;99840.31;4946129;28;20059;-86
2023/06/02 01:11:07;;;;;;;5.22;4.30;;;;;;;20.48;46.31;99841.50;4935620;28;20122;-88
2023/06/02 01:13:34;;;;;;;6.75;4.35;;;;;;;20.46;46.22;99837.34;4918372;28;20065;-87
2023/06/02 01:16:01;;;;;;;5.43;4.00;;;;;;;20.42;46.39;99839.59;4933949;28;20114;-87
2023/06/02 01:18:29;;;;;;;8.10;4.72;;;;;;;20.41;46.36;99845.19;4929650;28;20061;-87
2023/06/02 01:21:01;;;;;;;5.80;4.10;;;;;;;20.38;46.45;99851.81;4930887;28;20279;-86
2023/06/02 01:23:37;;;;;;;5.28;4.15;;;;;;;20.23;46.76;99849.25;4907033;28;20101;-86
2023/06/02 01:26:08;;;;;;;4.85;3.90;;;;;;;20.26;46.58;99851.53;4923518;28;20413;-87
2023/06/02 01:28:37;;;;;;;6.15;4.50;;;;;;;20.29;46.69;99858.41;4919832;28;20105;-87
2023/06/02 01:31:12;;;;;;;4.88;4.05;;;;;;;20.14;47.39;99843.16;4947728;28;20153;-87
2023/06/02 01:33:45;;;;;;;6.60;4.20;;;;;;;20.08;47.42;99838.56;4929821;28;20054;-87
2023/06/02 01:36:12;;;;;;;6.85;4.68;;;;;;;20.17;47.01;99847.31;4941799;28;20497;-87
2023/06/02 01:38:40;;;;;;;6.90;4.47;;;;;;;20.08;47.10;99838.56;4942075;28;20438;-86
2023/06/02 01:41:07;;;;;;;6.72;4.28;;;;;;;20.07;46.92;99844.97;4932689;28;20075;-87
2023/06/02 01:43:35;;;;;;;5.03;4.03;;;;;;;20.08;46.86;99845.84;4932794;28;20061;-87
2023/06/02 01:46:03;;;;;;;6.38;5.07;;;;;;;20.05;46.88;99840.81;4918838;28;20051;-87
2023/06/02 01:48:32;;;;;;;6.63;4.57;;;;;;;19.96;47.16;99850.91;4922124;28;20505;-88
2023/06/02 01:50:59;;;;;;;8.07;4.78;;;;;;;19.98;47.19;99856.97;4954172;28;20054;-86
2023/06/02 01:53:26;;;;;;;8.93;5.10;;;;;;;19.91;47.41;99859.59;4965551;28;20054;-87
2023/06/02 01:55:54;;;;;;;5.15;4.32;;;;;;;19.85;47.79;99852.31;4964356;28;20054;-87
2023/06/02 01:58:21;;;;;;;6.63;4.70;;;;;;;19.82;47.80;99859.91;4948499;28;20398;-87
2023/06/02 02:00:48;;;;;;;5.82;4.35;;;;;;;19.81;47.54;99864.50;4967871;28;20054;-86
2023/06/02 02:03:15;;;;;;;5.57;4.63;;;;;;;19.83;47.72;99869.69;4965211;28;20429;-86
2023/06/02 02:05:42;;;;;;;5.70;4.47;;;;;;;19.78;47.75;99878.34;4955082;28;20061;-87
2023/06/02 02:08:12;;;;;;;5.57;4.18;;;;;;;19.70;48.09;99879.31;4943968;28;20054;-87
2023/06/02 02:10:39;;;;;;;5.90;3.97;;;;;;;19.81;47.98;99869.88;4939549;28;20137;-88
2023/06/02 02:13:06;;;;;;;7.47;4.60;;;;;;;19.75;48.07;99878.75;4944057;28;20051;-86
2023/06/02 02:15:33;;;;;;;6.70;4.63;;;;;;;19.77;47.93;99882.09;4931456;28;20047;-87
2023/06/02 02:17:59;;;;;;;6.53;4.22;;;;;;;19.78;47.83;99874.84;4929031;28;20054;-87
2023/06/02 02:20:26;;;;;;;5.82;4.60;;;;;;;19.76;47.96;99876.88;4938806;28;20047;-87
2023/06/02 02:22:54;;;;;;;5.70;4.35;;;;;;;19.70;48.37;99878.50;4932401;28;20047;-87
2023/06/02 02:25:21;;;;;;;7.25;4.78;;;;;;;19.66;48.42;99877.19;4911768;28;20102;-86
2023/06/02 02:27:49;;;;;;;5.28;4.40;;;;;;;19.65;48.21;99870.97;4943082;28;20058;-87
2023/06/02 02:30:16;;;;;;;5.30;4.22;;;;;;;19.61;48.42;99880.44;4946493;28;20109;-88
2023/06/02 02:32:44;;;;;;;7.07;4.43;;;;;;;19.58;48.67;99880.00;4924530;28;22340;-87
2023/06/02 02:35:11;;;;;;;6.30;4.45;;;;;;;19.60;48.44;99870.72;4937461;28;20525;-86
2023/06/02 02:37:39;;;;;;;7.15;5.18;;;;;;;19.55;48.60;99877.72;4911923;28;20051;-86
2023/06/02 02:40:16;;;;;;;6.40;4.68;;;;;;;19.57;48.69;99870.28;4932779;28;20046;-87
2023/06/02 02:42:44;;;;;;;6.57;4.45;;;;;;;19.56;48.80;99882.88;4928386;28;20055;-87
2023/06/02 02:45:11;;;;;;;6.15;4.72;;;;;;;19.56;48.74;99887.44;4937515;28;20047;-87
2023/06/02 02:47:38;;;;;;;7.53;4.82;;;;;;;19.50;48.60;99883.66;4940481;28;20386;-87
2023/06/02 02:50:06;;;;;;;6.88;4.82;;;;;;;19.48;48.84;99880.31;4941586;28;20548;-86
2023/06/02 02:52:35;;;;;;;7.07;4.70;;;;;;;19.49;48.80;99879.31;4928007;28;20355;-86
2023/06/02 02:55:04;;;;;;;7.88;5.00;;;;;;;19.48;48.94;99888.41;4935075;28;20050;-86
2023/06/02 02:57:32;;;;;;;6.50;4.85;;;;;;;19.55;48.40;99888.47;4935309;28;20425;-86
2023/06/02 02:59:59;;;;;;;8.80;5.55;;;;;;;19.54;48.26;99884.97;4938535;28;20046;-87
2023/06/02 03:02:31;;;;;;;6.78;5.00;;;;;;;19.47;48.79;99878.69;4943958;28;20050;-87
2023/06/02 03:05:02;;;;;;;7.43;5.70;;;;;;;19.51;48.38;99877.25;4971641;28;20054;-86
2023/06/02 03:07:29;;;;;;;8.82;5.20;;;;;;;19.55;48.26;99883.91;4946029;28;20142;-86
2023/06/02 03:09:56;;;;;;;9.82;5.13;;;;;;;19.50;48.52;99886.38;4959540;28;20060;-86
2023/06/02 03:12:24;;;;;;;7.95;5.25;;;;;;;19.41;49.04;99887.50;4932201;28;20173;-87
2023/06/02 03:14:52;;;;;;;6.95;5.20;;;;;;;19.35;49.70;99902.56;4972406;28;20055;-86
2023/06/02 03:17:20;;;;;;;8.13;4.63;;;;;;;19.25;50.24;99899.34;4942137;28;20096;-86
2023/06/02 03:19:46;;;;;;;7.07;5.22;;;;;;;19.16;50.45;99898.66;4952952;28;20428;-86
2023/06/02 03:22:14;;;;;;;9.23;5.97;;;;;;;19.20;50.84;99896.41;4967020;28;20051;-87
2023/06/02 03:24:41;;;;;;;8.85;5.13;;;;;;;19.24;50.51;99903.91;4962606;28;20082;-86
2023/06/02 03:27:13;;;;;;;6.97;5.40;;;;;;;19.27;50.27;99895.44;4926670;28;20071;-87
2023/06/02 03:29:44;;;;;;;7.28;5.05;;;;;;;19.34;49.75;99909.00;4936728;28;20057;-87
2023/06/02 03:32:13;;;;;;;6.93;5.38;;;;;;;19.20;49.87;99915.25;4925074;28;20051;-86
2023/06/02 03:34:40;;;;;;;8.50;5.68;;;;;;;19.15;49.87;99909.59;4954231;28;20522;-86
2023/06/02 03:37:10;;;;;;;7.63;5.03;;;;;;;19.10;49.44;99915.53;4949317;28;20432;-86
2023/06/02 03:39:36;;;;;;;10.02;5.32;;;;;;;19.05;49.68;99918.78;4975364;28;20112;-87
2023/06/02 03:42:04;;;;;;;7.88;5.45;;;;;;;19.08;49.58;99913.06;4976483;28;20429;-85
2023/06/02 03:44:31;;;;;;;7.25;5.30;;;;;;;19.16;49.40;99922.03;4969972;28;20125;-87
2023/06/02 03:46:58;;;;;;;7.45;5.07;;;;;;;19.19;49.54;99929.75;4975126;28;20066;-86
2023/06/02 03:49:27;;;;;;;6.35;4.75;;;;;;;19.19;49.99;99925.19;4970762;28;20046;-85
2023/06/02 03:51:55;;;;;;;8.75;5.63;;;;;;;19.31;50.14;99922.84;4937783;28;20117;-87
2023/06/02 03:54:23;;;;;;;8.88;5.78;;;;;;;19.63;49.99;99921.50;4911294;28;20051;-86
2023/06/02 03:56:50;;;;;;;7.40;5.63;;;;;;;20.15;49.56;99917.63;4939341;28;21022;-86
2023/06/02 03:59:17;;;;;;;7.75;5.38;;;;;;;20.78;48.66;99912.22;4943707;28;20054;-86
2023/06/02 04:01:44;;;;;;;9.45;5.18;;;;;;;21.40;46.79;99928.50;4944062;28;20050;-86
2023/06/02 04:04:12;;;;;;;8.48;5.22;;;;;;;22.10;45.23;99905.44;4931687;28;20047;-86
2023/06/02 04:06:42;;;;;;;7.20;5.43;;;;;;;22.62;43.56;99916.44;4927830;28;20046;-86
2023/06/02 04:09:12;;;;;;;7.50;5.70;;;;;;;22.64;42.13;99919.75;4922468;28;20072;-85
2023/06/02 04:11:42;;;;;;;6.20;5.45;;;;;;;22.39;42.77;99910.63;4952499;28;20057;-86
2023/06/02 04:14:10;;;;;;;9.57;5.40;;;;;;;21.99;43.51;99924.19;4960669;28;20420;-86
2023/06/02 04:16:37;;;;;;;7.28;5.10;;;;;;;21.64;43.97;99930.59;4951255;28;20051;-86
2023/06/02 04:19:05;;;;;;;7.03;5.68;;;;;;;21.44;44.49;99935.97;4964152;28;20521;-86
2023/06/02 04:21:33;;;;;;;10.40;5.35;;;;;;;21.19;45.41;99934.81;4944733;28;20073;-86
2023/06/02 04:24:01;;;;;;;6.65;5.05;;;;;;;21.07;44.90;99928.34;4925899;28;20047;-87
2023/06/02 04:26:28;;;;;;;7.78;5.75;;;;;;;21.00;45.17;99934.53;4928104;28;20474;-86
2023/06/02 04:28:55;;;;;;;8.95;6.18;;;;;;;20.73;45.77;99928.19;4971964;28;20050;-86
2023/06/02 04:31:42;;;;;;;9.23;5.57;;;;;;;20.53;46.23;99943.38;4948503;28;20212;-86
2023/06/02 04:34:12;;;;;;;5.90;5.22;;;;;;;20.59;46.47;99946.16;4935392;28;20057;-85
2023/06/02 04:36:40;;;;;;;8.48;5.15;;;;;;;20.46;46.25;99945.22;4942702;28;20043;-89
2023/06/02 04:39:08;;;;;;;8.55;5.30;;;;;;;20.46;46.16;99950.63;4941390;28;20054;-87
2023/06/02 04:41:36;;;;;;;9.15;5.00;;;;;;;20.42;46.22;99941.25;4948165;28;20053;-87
2023/06/02 04:44:05;;;;;;;6.13;4.53;;;;;;;20.39;46.39;99947.88;4948131;28;20066;-86
2023/06/02 04:46:33;;;;;;;8.02;5.40;;;;;;;20.24;46.64;99941.75;4926746;28;20055;-86
2023/06/02 04:49:07;;;;;;;9.18;5.72;;;;;;;20.24;46.84;99944.44;4911982;28;20528;-86
2023/06/02 04:51:35;;;;;;;6.75;4.85;;;;;;;20.22;46.51;99946.50;4944836;28;20046;-86
2023/06/02 04:54:02;;;;;;;6.80;4.90;;;;;;;20.13;46.82;99954.72;4956726;28;25138;-86
2023/06/02 04:56:30;;;;;;;6.68;4.50;;;;;;;20.03;47.07;99953.41;4988454;28;20532;-86
2023/06/02 04:58:58;;;;;;;9.20;4.70;;;;;;;19.99;46.82;99947.56;4956864;28;20420;-86
2023/06/02 05:01:25;;;;;;;9.25;4.70;;;;;;;19.85;47.20;99951.19;4933232;28;20061;-86
2023/06/02 05:03:53;;;;;;;5.97;5.03;;;;;;;19.78;47.26;99942.19;4942645;28;20050;-86
2023/06/02 05:06:20;;;;;;;8.85;5.30;;;;;;;19.72;47.38;99941.09;4982014;28;20252;-87
2023/06/02 05:08:47;;;;;;;5.63;4.32;;;;;;;19.77;47.46;99945.91;4968206;28;20046;-87
2023/06/02 05:11:14;;;;;;;8.45;4.57;;;;;;;19.74;47.25;99947.13;4967860;28;20412;-87
2023/06/02 05:13:44;;;;;;;9.48;4.45;;;;;;;19.77;47.56;99959.38;4983612;28;20098;-87
2023/06/02 05:16:12;;;;;;;6.78;4.55;;;;;;;19.66;47.56;99941.81;4973715;28;20042;-86
2023/06/02 05:18:39;;;;;;;8.05;5.05;;;;;;;19.69;47.45;99942.31;4968922;28;20053;-87
2023/06/02 05:21:06;;;;;;;6.13;4.80;;;;;;;19.61;47.83;99946.97;4966102;28;20051;-86
2023/06/02 05:23:33;;;;;;;6.75;4.90;;;;;;;19.61;47.15;99941.56;4974616;28;20056;-87
2023/06/02 05:26:01;;;;;;;6.15;4.72;;;;;;;19.51;47.67;99952.66;4924910;28;20409;-87
2023/06/02 05:28:28;;;;;;;6.68;4.82;;;;;;;19.45;47.63;99948.88;4931495;28;20133;-88
2023/06/02 05:30:55;;;;;;;6.18;4.68;;;;;;;19.41;47.80;99944.06;4938078;28;20051;-86
2023/06/02 05:33:23;;;;;;;5.85;4.50;;;;;;;19.41;47.39;99952.13;4959618;28;20061;-86
2023/06/02 05:35:50;;;;;;;5.28;4.78;;;;;;;19.33;47.54;99957.63;4939375;28;20051;-87
2023/06/02 05:38:17;;;;;;;5.50;4.32;;;;;;;19.26;47.58;99958.41;4934135;28;20047;-86
2023/06/02 05:40:45;;;;;;;6.28;4.10;;;;;;;19.24;48.05;99957.75;4953749;28;20053;-87
2023/06/02 05:43:13;;;;;;;6.03;4.18;;;;;;;19.25;47.92;99970.19;4922487;28;20058;-86
2023/06/02 05:45:40;;;;;;;6.88;3.85;;;;;;;19.08;48.01;99960.66;4943300;28;20051;-87
2023/06/02 05:48:07;;;;;;;6.38;4.28;;;;;;;19.16;47.72;99965.94;4940001;28;20070;-87
2023/06/02 05:50:36;;;;;;;6.10;4.30;;;;;;;19.19;47.88;99970.94;4935603;28;20042;-87
2023/06/02 05:53:03;;;;;;;6.50;4.65;;;;;;;18.95;48.14;99969.38;4962202;28;20051;-87
2023/06/02 05:55:30;;;;;;;7.68;4.55;;;;;;;18.97;48.58;99967.34;4909703;28;20051;-87
2023/06/02 05:57:59;;;;;;;5.60;4.70;;;;;;;18.95;48.68;99968.56;4925403;28;20459;-88
2023/06/02 06:00:27;;;;;;;6.88;4.85;;;;;;;19.13;48.66;99971.69;4943543;28;20053;-87
2023/06/02 06:02:55;;;;;;;5.25;4.10;;;;;;;19.22;48.18;99972.44;4923261;28;20486;-87
2023/06/02 06:05:28;;;;;;;6.15;4.43;;;;;;;19.14;48.13;99973.38;4925429;28;20446;-87
2023/06/02 06:07:56;;;;;;;5.10;4.10;;;;;;;19.17;48.32;99977.53;4931104;28;20050;-87
2023/06/02 06:10:24;;;;;;;5.97;4.53;;;;;;;19.01;48.34;99979.41;4921945;28;20075;-86
2023/06/02 06:12:55;;;;;;;5.90;4.45;;;;;;;19.12;48.67;99978.09;4928308;28;20522;-87
2023/06/02 06:15:22;;;;;;;5.20;4.70;;;;;;;19.23;47.99;99980.31;4916038;28;20047;-86
2023/06/02 06:17:50;;;;;;;5.65;4.30;;;;;;;19.28;48.60;99980.59;4936529;28;20514;-87
2023/06/02 06:20:18;;;;;;;5.68;4.10;;;;;;;19.27;48.45;99984.28;4939997;28;20135;-87
2023/06/02 06:22:45;;;;;;;5.63;4.30;;;;;;;19.34;48.03;99983.56;4931786;28;20043;-87
2023/06/02 06:25:13;;;;;;;5.20;4.22;;;;;;;19.35;48.20;99983.34;4943715;28;20533;-87
2023/06/02 06:27:40;;;;;;;4.65;3.63;;;;;;;19.47;47.94;99978.31;4962281;28;20069;-88
2023/06/02 06:30:07;;;;;;;7.43;4.25;;;;;;;19.37;48.33;99981.31;4923988;28;20043;-87
2023/06/02 06:32:35;;;;;;;5.78;4.47;;;;;;;19.34;47.86;99980.88;4939476;28;20661;-88
2023/06/02 06:35:02;;;;;;;8.18;4.70;;;;;;;19.33;47.66;99984.56;4938752;28;20065;-86
2023/06/02 06:37:29;;;;;;;5.90;4.13;;;;;;;19.28;47.71;99977.03;4932942;28;20130;-87
2023/06/02 06:39:56;;;;;;;5.28;3.80;;;;;;;19.28;48.38;99985.97;4913966;28;20047;-87
2023/06/02 06:42:23;;;;;;;5.90;4.20;;;;;;;19.40;47.97;99980.09;4920692;28;20470;-87
2023/06/02 06:45:00;;;;;;;5.30;4.18;;;;;;;19.41;47.99;99977.22;4918521;28;20055;-87
2023/06/02 06:47:26;;;;;;;7.93;4.13;;;;;;;19.43;48.24;99988.63;4946202;28;20556;-87
2023/06/02 06:49:55;;;;;;;6.18;4.00;;;;;;;19.45;48.19;99983.06;4922677;28;20055;-87
2023/06/02 06:52:21;;;;;;;7.68;4.32;;;;;;;19.55;48.18;99974.66;4922651;28;20047;-87
2023/06/02 06:54:50;;;;;;;6.55;4.22;;;;;;;19.61;48.20;99990.88;4925615;28;20422;-87
2023/06/02 06:57:18;;;;;;;5.47;4.50;;;;;;;19.53;47.95;99985.63;4940020;28;20344;-88
2023/06/02 06:59:48;;;;;;;5.55;4.40;;;;;;;19.55;47.84;99982.75;4936244;28;20058;-86
2023/06/02 07:02:14;;;;;;;7.10;4.40;;;;;;;19.64;48.18;99984.28;4931456;28;20078;-85
2023/06/02 07:04:41;;;;;;;6.82;4.32;;;;;;;19.71;48.41;99986.06;4976501;28;20664;-86
2023/06/02 07:07:08;;;;;;;5.95;4.70;;;;;;;19.61;48.23;99979.28;4950207;28;20117;-87
2023/06/02 07:09:35;;;;;;;5.80;3.95;;;;;;;19.63;48.14;99979.94;4929058;28;20103;-87
2023/06/02 07:12:02;;;;;;;6.80;4.13;;;;;;;19.68;48.10;99977.53;4922478;28;20047;-87
2023/06/02 07:14:30;;;;;;;5.05;4.43;;;;;;;19.56;48.07;99976.34;4949421;28;20051;-87
2023/06/02 07:16:56;;;;;;;4.85;3.90;;;;;;;19.57;47.67;99989.63;4949031;28;20043;-88
2023/06/02 07:19:23;;;;;;;5.47;4.80;;;;;;;19.60;48.50;99989.22;4937002;28;20090;-86
2023/06/02 07:21:51;;;;;;;6.45;4.30;;;;;;;19.60;48.60;99983.84;4944324;28;20047;-86
2023/06/02 07:24:18;;;;;;;6.88;4.40;;;;;;;19.61;48.31;99990.88;4928110;28;20445;-87
2023/06/02 07:26:45;;;;;;;6.07;4.82;;;;;;;19.67;48.63;99994.72;4938931;28;20051;-86
2023/06/02 07:29:12;;;;;;;6.80;4.50;;;;;;;19.66;48.70;99996.53;4925187;28;20360;-87
2023/06/02 07:31:43;;;;;;;4.40;3.97;;;;;;;19.67;48.44;99997.44;4951354;28;20047;-86
2023/06/02 07:34:10;;;;;;;4.95;3.67;;;;;;;19.69;48.39;99990.81;4933922;28;20150;-87
2023/06/02 07:36:38;;;;;;;7.45;4.30;;;;;;;19.74;48.33;99998.31;4935433;28;20457;-86
2023/06/02 07:39:05;;;;;;;7.03;4.47;;;;;;;19.79;48.32;99992.34;4949540;28;20125;-87
2023/06/02 07:41:32;;;;;;;4.47;4.03;;;;;;;19.88;48.54;99991.22;4958676;28;20056;-87
2023/06/02 07:43:59;;;;;;;5.57;3.65;;;;;;;19.92;48.72;99987.94;4957394;28;20047;-86
2023/06/02 07:46:26;;;;;;;4.90;4.18;;;;;;;19.98;48.55;99989.03;4958073;28;20061;-87
2023/06/02 07:48:53;;;;;;;4.78;4.15;;;;;;;19.99;48.32;99987.16;4949922;28;20053;-86
2023/06/02 07:51:20;;;;;;;4.22;3.83;;;;;;;19.97;48.56;99989.22;4957548;28;20046;-87
2023/06/02 07:53:47;;;;;;;4.65;4.07;;;;;;;19.93;48.28;99995.00;4970587;28;20047;-86
2023/06/02 07:56:13;;;;;;;5.65;4.45;;;;;;;19.76;48.18;99979.28;4940843;28;20042;-86
2023/06/02 07:58:40;;;;;;;4.85;3.90;;;;;;;19.85;48.51;99992.44;4943348;28;20053;-87
2023/06/02 08:01:07;;;;;;;5.10;3.60;;;;;;;19.91;48.74;99982.72;4914490;28;20126;-86
2023/06/02 08:03:35;;;;;;;5.38;4.18;;;;;;;19.95;48.47;99981.34;4940093;28;20130;-87
2023/06/02 08:06:02;;;;;;;5.35;4.50;;;;;;;20.02;48.61;99982.19;4937467;28;20059;-87
2023/06/02 08:08:29;;;;;;;5.30;4.30;;;;;;;20.05;48.31;99984.53;4924634;28;20567;-86
2023/06/02 08:10:57;;;;;;;7.88;4.60;;;;;;;19.95;47.94;99986.72;4948658;28;20097;-87
2023/06/02 08:13:25;;;;;;;9.35;4.80;;;;;;;19.89;48.20;99984.78;4973916;28;20050;-86
2023/06/02 08:15:52;;;;;;;5.03;4.00;;;;;;;19.86;48.47;99985.16;4951876;28;20074;-87
2023/06/02 08:18:38;;;;;;;6.13;4.30;;;;;;;19.84;47.94;99973.75;4957007;28;20054;-87
2023/06/02 08:21:05;;;;;;;4.60;4.07;;;;;;;19.79;48.46;99976.19;4974514;28;20055;-86
2023/06/02 08:23:32;;;;;;;5.47;4.80;;;;;;;19.79;48.56;99968.09;4971846;28;20468;-87
2023/06/02 08:25:59;;;;;;;8.43;4.13;;;;;;;19.70;48.61;99972.78;4923335;28;20149;-86
2023/06/02 08:28:29;;;;;;;6.22;4.60;;;;;;;19.83;48.08;99980.16;4926867;28;20154;-86
2023/06/02 08:30:59;;;;;;;5.95;4.13;;;;;;;19.83;48.05;99972.91;4945769;28;20050;-86
2023/06/02 08:33:27;;;;;;;4.72;3.72;;;;;;;19.96;48.48;99980.28;4934515;28;20047;-87
2023/06/02 08:35:54;;;;;;;4.65;3.60;;;;;;;19.96;48.37;99974.91;4944661;28;20051;-86
2023/06/02 08:38:21;;;;;;;7.20;4.90;;;;;;;19.94;47.75;99977.78;4950602;28;20468;-86
2023/06/02 08:40:47;;;;;;;6.20;4.45;;;;;;;19.84;48.17;99968.34;4925465;28;20058;-86
2023/06/02 08:43:15;;;;;;;4.85;3.63;;;;;;;19.92;48.17;99970.91;4956091;28;20318;-87
2023/06/02 08:45:42;;;;;;;7.75;4.85;;;;;;;19.90;48.76;99975.69;4934497;28;20468;-87
2023/06/02 08:48:15;;;;;;;5.35;4.85;;;;;;;19.93;48.88;99969.91;4952542;28;20051;-87
2023/06/02 08:50:47;;;;;;;7.03;5.10;;;;;;;19.97;47.80;99975.72;4947990;28;20047;-86
2023/06/02 08:53:18;;;;;;;6.72;4.82;;;;;;;20.05;47.73;99967.50;4953188;28;20051;-87
2023/06/02 08:55:48;;;;;;;5.35;3.80;;;;;;;20.09;47.84;99969.63;4930749;28;20425;-88
2023/06/02 08:58:14;;;;;;;5.82;4.82;;;;;;;20.09;48.19;99971.50;4934601;28;20801;-87
2023/06/02 09:00:41;;;;;;;5.80;4.50;;;;;;;20.13;48.32;99962.81;4935495;28;20074;-87
2023/06/02 09:03:12;;;;;;;7.55;4.78;;;;;;;20.11;47.58;99955.97;4929589;28;20093;-87
2023/06/02 09:05:59;;;;;;;5.72;4.38;;;;;;;20.14;47.18;99967.19;4929427;28;20082;-87
2023/06/02 09:08:29;;;;;;;5.50;4.07;;;;;;;20.00;47.48;99964.56;4945792;28;20133;-88
2023/06/02 09:10:56;;;;;;;4.40;4.00;;;;;;;19.92;47.10;99965.53;4947605;28;20127;-87
2023/06/02 09:13:32;;;;;;;5.22;4.00;;;;;;;20.00;47.39;99954.63;4943229;28;20051;-86
2023/06/02 09:16:07;;;;;;;4.78;4.22;;;;;;;20.07;46.72;99960.88;4935889;28;20492;-86
2023/06/02 09:18:34;;;;;;;4.50;3.97;;;;;;;20.14;46.90;99955.56;4954686;28;20051;-86
2023/06/02 09:21:01;;;;;;;5.07;4.40;;;;;;;20.16;47.08;99956.22;4904105;28;20046;-87
2023/06/02 09:23:43;;;;;;;4.85;3.83;;;;;;;20.11;46.57;99958.66;4933824;28;20127;-88
2023/06/02 09:26:21;;;;;;;5.22;3.97;;;;;;;20.19;47.35;99963.06;4941819;28;20142;-87
2023/06/02 09:29:03;;;;;;;5.20;3.97;;;;;;;20.16;47.14;99965.13;4913492;28;20053;-87
2023/06/02 09:31:52;;;;;;;4.53;4.00;;;;;;;20.23;47.41;99959.78;4958014;28;20071;-88
2023/06/02 09:34:21;;;;;;;4.97;4.05;;;;;;;20.36;47.05;99959.88;4950840;28;20164;-87
2023/06/02 09:36:51;;;;;;;5.90;4.18;;;;;;;20.39;47.11;99959.50;4944520;28;20054;-87
2023/06/02 09:39:44;;;;;;;5.05;4.30;;;;;;;20.33;47.03;99957.59;4941408;28;20074;-87
2023/06/02 09:42:14;;;;;;;3.90;3.60;;;;;;;20.41;47.06;99951.22;4941148;28;20482;-86
2023/06/02 09:44:42;;;;;;;5.00;4.13;;;;;;;20.42;46.94;99950.16;4952685;28;20122;-86
2023/06/02 09:47:19;;;;;;;4.63;3.85;;;;;;;20.40;47.14;99949.53;4937444;28;20047;-86
2023/06/02 09:49:47;;;;;;;5.70;4.10;;;;;;;20.51;47.16;99951.69;4941348;28;20518;-87
2023/06/02 09:52:15;;;;;;;6.20;3.78;;;;;;;20.54;47.29;99953.16;4913686;28;20053;-87
2023/06/02 09:54:46;;;;;;;5.03;3.88;;;;;;;20.56;46.77;99949.28;4922302;28;20122;-86
2023/06/02 09:57:15;;;;;;;4.05;3.75;;;;;;;20.57;46.69;99945.53;4940545;28;20073;-86
2023/06/02 09:59:43;;;;;;;6.22;4.00;;;;;;;20.60;46.93;99945.13;4953097;28;20067;-86
2023/06/02 10:02:10;;;;;;;6.20;4.20;;;;;;;20.62;46.63;99942.25;4934267;28;20098;-86
2023/06/02 10:04:37;;;;;;;4.18;3.67;;;;;;;20.63;46.74;99943.91;4942264;28;20101;-87
2023/06/02 10:07:15;;;;;;;4.05;3.60;;;;;;;20.60;46.74;99931.63;4952585;28;20055;-87
2023/06/02 10:09:54;;;;;;;6.97;4.03;;;;;;;20.62;47.14;99942.25;4968314;28;20053;-86
2023/06/02 10:12:30;;;;;;;5.63;3.83;;;;;;;20.63;46.69;99929.56;4975803;28;20054;-86
2023/06/02 10:15:28;;;;;;;4.10;3.67;;;;;;;20.58;46.46;99927.47;4924162;28;20682;-87
2023/06/02 10:18:13;;;;;;;4.90;3.65;;;;;;;20.63;46.65;99932.28;4922801;28;20440;-87
2023/06/02 10:20:59;;;;;;;5.60;4.28;;;;;;;20.52;46.61;99933.63;4958857;28;20242;-85
2023/06/02 10:23:35;;;;;;;4.35;3.90;;;;;;;20.64;46.64;99924.00;4967552;28;20054;-86
2023/06/02 10:26:11;;;;;;;6.72;3.75;;;;;;;20.72;46.72;99926.53;4964881;28;20106;-86
2023/06/02 10:28:38;;;;;;;4.45;3.58;;;;;;;20.75;46.60;99928.81;4959527;28;20051;-87
2023/06/02 10:31:07;;;;;;;3.92;3.53;;;;;;;20.79;46.75;99929.25;4968879;28;20034;-86
2023/06/02 10:33:48;;;;;;;4.10;3.70;;;;;;;20.72;45.65;99925.69;4955224;28;20493;-86
2023/06/02 10:36:18;;;;;;;6.72;3.83;;;;;;;20.83;45.99;99927.81;4973180;28;20395;-86
2023/06/02 10:38:45;;;;;;;5.50;4.18;;;;;;;20.86;46.54;99927.41;4932858;28;20122;-87
2023/06/02 10:41:14;;;;;;;4.28;3.55;;;;;;;20.89;46.34;99920.78;4933237;28;20077;-87
2023/06/02 10:44:31;;;;;;;4.03;3.50;;;;;;;20.81;45.67;99916.38;4945952;28;20073;-87
2023/06/02 10:47:19;;;;;;;3.67;3.17;;;;;;;20.79;45.94;99913.06;4948126;28;20101;-87
2023/06/02 10:50:07;;;;;;;4.25;3.80;;;;;;;20.87;46.18;99914.78;4982342;28;20047;-87
2023/06/02 10:52:58;;;;;;;4.07;3.63;;;;;;;20.81;45.43;99910.97;4956197;28;20046;-86
2023/06/02 10:55:31;;;;;;;4.03;3.60;;;;;;;20.95;45.89;99906.50;4979466;28;20573;-87
2023/06/02 10:58:03;;;;;;;4.07;3.65;;;;;;;21.01;46.09;99909.22;4930747;28;20135;-87
2023/06/02 11:00:35;;;;;;;4.15;3.75;;;;;;;21.04;45.90;99908.00;4946909;28;20506;-89
2023/06/02 11:03:15;;;;;;;3.50;3.20;;;;;;;21.09;46.21;99904.66;4947697;28;20050;-85
2023/06/02 11:05:47;;;;;;;4.95;3.65;;;;;;;21.12;45.61;99905.09;4943262;28;20109;-86
2023/06/02 11:08:14;;;;;;;4.10;3.20;;;;;;;21.13;45.72;99898.66;4940875;28;20051;-87
2023/06/02 11:10:41;;;;;;;4.40;3.25;;;;;;;21.16;45.86;99905.53;4950148;28;20058;-87
2023/06/02 11:13:09;;;;;;;3.90;3.45;;;;;;;21.20;45.71;99909.50;4943362;28;20575;-86
2023/06/02 11:15:35;;;;;;;4.03;3.60;;;;;;;21.20;45.82;99901.38;4938017;28;20145;-87
2023/06/02 11:18:28;;;;;;;5.03;3.60;;;;;;;21.16;45.64;99906.34;4942748;28;20046;-86
2023/06/02 11:20:57;;;;;;;3.67;3.38;;;;;;;21.30;45.75;99899.13;4957442;28;20054;-87
2023/06/02 11:23:24;;;;;;;3.58;3.28;;;;;;;21.33;45.60;99901.41;4940512;28;20506;-87
2023/06/02 11:26:00;;;;;;;4.85;3.30;;;;;;;21.27;45.33;99899.53;4956210;28;20058;-87
2023/06/02 11:28:28;;;;;;;4.38;3.20;;;;;;;21.35;45.72;99895.81;4961327;28;20060;-87
2023/06/02 11:31:15;;;;;;;4.35;3.42;;;;;;;21.33;45.60;99895.19;4943008;28;20575;-86
2023/06/02 11:33:48;;;;;;;3.80;3.40;;;;;;;;;;4947016;28;20071;-87
2023/06/02 11:36:16;;;;;;;3.85;3.45;;;;;;;21.43;44.87;99899.19;4957553;28;20050;-88
2023/06/02 11:38:43;;;;;;;5.38;3.85;;;;;;;21.44;45.01;99892.72;4939853;28;20047;-87
2023/06/02 11:41:21;;;;;;;4.22;3.40;;;;;;;21.41;44.94;99895.84;4943882;28;20498;-85
2023/06/02 11:43:48;;;;;;;6.93;3.55;;;;;;;21.55;45.07;99901.25;4952251;28;20050;-86
2023/06/02 11:46:16;;;;;;;5.93;4.13;;;;;;;21.52;44.73;99902.50;4931190;28;20833;-87